createdAt,value
2023-03-01T00:01:27.322Z,1.49
2023-03-01T00:03:56.198Z,1.48
2023-03-01T00:06:24.971Z,1.48
2023-03-01T00:08:53.327Z,1.44
2023-03-01T00:11:23.324Z,1.46
2023-03-01T00:13:56.303Z,1.44
2023-03-01T00:16:26.261Z,1.42
2023-03-01T00:18:54.289Z,1.43
2023-03-01T00:21:22.448Z,1.42
2023-03-01T00:23:51.311Z,1.42
2023-03-01T00:26:20.256Z,1.41
2023-03-01T00:29:00.197Z,1.40
2023-03-01T00:31:31.959Z,1.38
2023-03-01T00:34:02.468Z,1.31
2023-03-01T00:36:32.782Z,1.35
2023-03-01T00:39:01.608Z,1.34
2023-03-01T00:41:29.562Z,1.34
2023-03-01T00:43:57.522Z,1.35
2023-03-01T00:46:27.109Z,1.36
2023-03-01T00:48:56.390Z,1.36
2023-03-01T00:51:27.197Z,1.37
2023-03-01T00:53:55.933Z,1.36
2023-03-01T00:56:23.807Z,1.36
2023-03-01T00:58:51.781Z,1.36
2023-03-01T01:01:22.121Z,1.37
2023-03-01T01:03:52.524Z,1.38
2023-03-01T01:06:23.752Z,1.40
2023-03-01T01:08:52.525Z,1.40
2023-03-01T01:11:21.585Z,1.40
2023-03-01T01:13:50.477Z,1.41
2023-03-01T01:16:20.629Z,1.43
2023-03-01T01:18:48.504Z,1.44
2023-03-01T01:21:23.771Z,1.44
2023-03-01T01:23:54.565Z,1.44
2023-03-01T01:26:25.670Z,1.44
2023-03-01T01:28:54.568Z,1.45
2023-03-01T01:31:24.615Z,1.42
2023-03-01T01:33:52.606Z,1.40
2023-03-01T01:36:20.724Z,1.40
2023-03-01T01:38:48.925Z,1.39
2023-03-01T01:41:19.704Z,1.37
2023-03-01T01:43:49.395Z,1.36
2023-03-01T01:46:30.697Z,1.36
2023-03-01T01:49:02.165Z,1.33
2023-03-01T01:51:39.536Z,1.32
2023-03-01T01:54:12.351Z,1.31
2023-03-01T01:56:45.605Z,1.29
2023-03-01T01:59:14.224Z,1.28
2023-03-01T02:01:42.163Z,1.28
2023-03-01T02:04:10.086Z,1.27
2023-03-01T02:06:41.911Z,1.26
2023-03-01T02:09:15.587Z,1.25
2023-03-01T02:11:46.273Z,1.24
2023-03-01T02:14:16.739Z,1.19
2023-03-01T02:16:44.992Z,1.20
2023-03-01T02:19:21.939Z,1.20
2023-03-01T02:22:00.985Z,1.19
2023-03-01T02:24:38.076Z,1.18
2023-03-01T02:27:07.570Z,1.12
2023-03-01T02:29:37.346Z,1.15
2023-03-01T02:32:06.080Z,1.13
2023-03-01T02:34:34.806Z,1.10
2023-03-01T02:37:05.516Z,1.06
2023-03-01T02:39:42.813Z,1.07
2023-03-01T02:42:14.896Z,1.04
2023-03-01T02:44:44.219Z,1.03
2023-03-01T02:47:11.999Z,1.01
2023-03-01T02:49:39.814Z,1.01
2023-03-01T02:52:25.562Z,1.03
2023-03-01T02:55:00.481Z,1.01
2023-03-01T02:57:30.985Z,1.00
2023-03-01T03:00:07.859Z,1.00
2023-03-01T03:02:39.924Z,0.98
2023-03-01T03:05:23.241Z,0.97
2023-03-01T03:07:56.687Z,0.96
2023-03-01T03:10:26.904Z,0.96
2023-03-01T03:12:57.972Z,0.95
2023-03-01T03:15:30.142Z,0.93
2023-03-01T03:18:00.093Z,0.89
2023-03-01T03:20:30.173Z,0.89
2023-03-01T03:23:00.098Z,0.86
2023-03-01T03:25:29.339Z,0.86
2023-03-01T03:27:58.977Z,0.83
2023-03-01T03:30:31.866Z,0.83
2023-03-01T03:33:01.106Z,0.79
2023-03-01T03:35:32.030Z,0.79
2023-03-01T03:38:04.148Z,0.79
2023-03-01T03:40:33.730Z,0.76
2023-03-01T03:43:01.522Z,0.75
2023-03-01T03:45:30.811Z,0.76
2023-03-01T03:47:58.601Z,0.75
2023-03-01T03:50:26.408Z,0.74
2023-03-01T03:52:54.197Z,0.72
2023-03-01T03:55:22.180Z,0.72
2023-03-01T03:57:52.411Z,0.71
2023-03-01T04:00:22.500Z,0.69
2023-03-01T04:02:57.448Z,0.68
2023-03-01T04:05:25.988Z,0.66
2023-03-01T04:08:01.968Z,0.64
2023-03-01T04:10:31.827Z,0.63
2023-03-01T04:12:59.813Z,0.62
2023-03-01T04:15:29.066Z,0.63
2023-03-01T04:17:59.960Z,0.59
2023-03-01T04:20:30.790Z,0.59
2023-03-01T04:23:11.372Z,0.58
2023-03-01T04:25:40.161Z,0.54
2023-03-01T04:28:08.518Z,0.53
2023-03-01T04:30:37.221Z,0.50
2023-03-01T04:33:08.776Z,0.51
2023-03-01T04:35:37.926Z,0.49
2023-03-01T04:38:06.208Z,0.47
2023-03-01T04:40:34.895Z,0.45
2023-03-01T04:43:03.217Z,0.44
2023-03-01T04:45:31.367Z,0.42
2023-03-01T04:47:59.524Z,0.40
2023-03-01T04:50:28.751Z,0.41
2023-03-01T04:52:59.352Z,0.38
2023-03-01T04:55:28.153Z,0.36
2023-03-01T04:57:56.588Z,0.36
2023-03-01T05:00:26.722Z,0.36
2023-03-01T05:02:56.988Z,0.32
2023-03-01T05:05:27.754Z,0.31
2023-03-01T05:07:59.467Z,0.27
2023-03-01T05:10:29.902Z,0.25
2023-03-01T05:12:58.292Z,0.23
2023-03-01T05:15:26.859Z,0.23
2023-03-01T05:17:56.092Z,0.21
2023-03-01T05:20:24.888Z,0.16
2023-03-01T05:22:54.214Z,0.12
2023-03-01T05:25:23.701Z,0.08
2023-03-01T05:27:51.442Z,0.03
2023-03-01T05:30:20.330Z,-0.04
2023-03-01T05:32:56.618Z,-0.06
2023-03-01T05:35:24.969Z,-0.11
2023-03-01T05:37:53.611Z,-0.11
2023-03-01T05:40:25.281Z,-0.12
2023-03-01T05:42:55.488Z,-0.15
2023-03-01T05:45:24.839Z,-0.16
2023-03-01T05:47:53.216Z,-0.22
2023-03-01T05:50:23.004Z,-0.23
2023-03-01T05:52:53.186Z,-0.23
2023-03-01T05:55:23.668Z,-0.24
2023-03-01T05:57:52.102Z,-0.25
2023-03-01T06:00:23.098Z,-0.26
2023-03-01T06:02:52.701Z,-0.29
2023-03-01T06:05:20.685Z,-0.29
2023-03-01T06:07:48.719Z,-0.28
2023-03-01T06:10:16.803Z,-0.32
2023-03-01T06:12:46.392Z,-0.30
2023-03-01T06:15:16.854Z,-0.34
2023-03-01T06:17:46.879Z,-0.32
2023-03-01T06:20:17.142Z,-0.32
2023-03-01T06:22:45.794Z,-0.32
2023-03-01T06:25:15.441Z,-0.31
2023-03-01T06:27:44.012Z,-0.32
2023-03-01T06:30:15.914Z,-0.29
2023-03-01T06:32:43.860Z,-0.31
2023-03-01T06:35:12.752Z,-0.27
2023-03-01T06:37:41.965Z,-0.26
2023-03-01T06:40:12.709Z,-0.24
2023-03-01T06:42:41.959Z,-0.21
2023-03-01T06:45:11.657Z,-0.23
2023-03-01T06:47:40.850Z,-0.19
2023-03-01T06:50:09.772Z,-0.17
2023-03-01T06:52:38.103Z,-0.16
2023-03-01T06:55:06.740Z,-0.15
2023-03-01T06:57:34.768Z,-0.10
2023-03-01T07:00:02.516Z,-0.04
2023-03-01T07:02:30.381Z,0.08
2023-03-01T07:04:59.559Z,0.20
2023-03-01T07:07:27.378Z,0.33
2023-03-01T07:09:55.341Z,0.48
2023-03-01T07:12:23.186Z,0.63
2023-03-01T07:14:50.958Z,0.80
2023-03-01T07:17:19.793Z,0.97
2023-03-01T07:19:47.527Z,1.16
2023-03-01T07:22:16.722Z,1.36
2023-03-01T07:24:45.017Z,1.55
2023-03-01T07:27:14.190Z,1.73
2023-03-01T07:29:41.958Z,1.92
2023-03-01T07:32:13.644Z,2.10
2023-03-01T07:34:41.508Z,2.28
2023-03-01T07:37:09.215Z,2.43
2023-03-01T07:39:38.460Z,2.58
2023-03-01T07:42:06.180Z,2.72
2023-03-01T07:44:35.381Z,2.86
2023-03-01T07:47:03.172Z,2.98
2023-03-01T07:49:30.967Z,3.10
2023-03-01T07:51:58.662Z,3.18
2023-03-01T07:54:27.238Z,3.31
2023-03-01T07:56:56.449Z,3.43
2023-03-01T07:59:24.848Z,3.56
2023-03-01T08:01:52.618Z,3.68
2023-03-01T08:04:20.521Z,3.81
2023-03-01T08:06:48.214Z,3.93
2023-03-01T08:09:16.075Z,4.02
2023-03-01T08:11:43.829Z,4.07
2023-03-01T08:14:13.044Z,4.12
2023-03-01T08:16:41.128Z,4.11
2023-03-01T08:19:10.086Z,4.10
2023-03-01T08:21:38.677Z,4.08
2023-03-01T08:24:08.040Z,4.08
2023-03-01T08:26:36.121Z,4.03
2023-03-01T08:29:05.241Z,4.00
2023-03-01T08:31:36.563Z,3.90
2023-03-01T08:34:07.334Z,3.88
2023-03-01T08:36:38.711Z,3.74
2023-03-01T08:39:07.708Z,3.73
2023-03-01T08:41:35.716Z,3.71
2023-03-01T08:44:03.750Z,3.65
2023-03-01T08:46:34.767Z,3.55
2023-03-01T08:49:05.305Z,3.50
2023-03-01T08:51:37.437Z,3.38
2023-03-01T08:54:05.526Z,3.37
2023-03-01T08:56:33.875Z,3.41
2023-03-01T08:59:02.109Z,3.34
2023-03-01T09:01:29.914Z,3.34
2023-03-01T09:03:59.212Z,3.35
2023-03-01T09:06:26.985Z,3.37
2023-03-01T09:08:55.830Z,3.44
2023-03-01T09:11:24.353Z,3.48
2023-03-01T09:13:52.682Z,3.54
2023-03-01T09:16:23.055Z,3.58
2023-03-01T09:18:52.792Z,3.66
2023-03-01T09:21:37.585Z,3.72
2023-03-01T09:24:07.884Z,3.76
2023-03-01T09:26:35.659Z,3.84
2023-03-01T09:29:03.453Z,3.86
2023-03-01T09:31:31.156Z,3.94
2023-03-01T09:33:58.930Z,4.00
2023-03-01T09:36:28.244Z,4.07
2023-03-01T09:38:56.087Z,4.12
2023-03-01T09:41:39.173Z,4.16
2023-03-01T09:44:15.491Z,4.22
2023-03-01T09:46:47.134Z,4.28
2023-03-01T09:49:20.614Z,4.30
2023-03-01T09:52:02.861Z,4.32
2023-03-01T09:54:30.806Z,4.38
2023-03-01T09:57:15.212Z,4.44
2023-03-01T09:59:58.093Z,4.53
2023-03-01T10:02:32.806Z,4.57
2023-03-01T10:05:15.271Z,4.64
2023-03-01T10:07:52.870Z,4.63
2023-03-01T10:10:29.854Z,4.73
2023-03-01T10:12:58.895Z,4.78
2023-03-01T10:15:37.179Z,4.87
2023-03-01T10:18:11.984Z,4.92
2023-03-01T10:20:47.964Z,4.96
2023-03-01T10:23:17.092Z,5.01
2023-03-01T10:25:58.222Z,5.07
2023-03-01T10:28:30.916Z,5.03
2023-03-01T10:31:01.112Z,5.01
2023-03-01T10:33:33.542Z,5.07
2023-03-01T10:36:01.406Z,5.09
2023-03-01T10:38:33.270Z,5.13
2023-03-01T10:41:06.381Z,5.13
2023-03-01T10:43:46.440Z,5.17
2023-03-01T10:46:28.784Z,5.19
2023-03-01T10:49:15.739Z,5.16
2023-03-01T10:51:45.819Z,5.16
2023-03-01T10:54:21.443Z,5.21
2023-03-01T10:56:51.692Z,5.24
2023-03-01T10:59:28.508Z,5.27
2023-03-01T11:02:26.188Z,5.31
2023-03-01T11:05:00.290Z,5.33
2023-03-01T11:07:28.648Z,5.33
2023-03-01T11:09:57.900Z,5.40
2023-03-01T11:12:26.460Z,5.42
2023-03-01T11:14:57.108Z,5.42
2023-03-01T11:17:29.984Z,5.41
2023-03-01T11:20:18.052Z,5.40
2023-03-01T11:22:50.011Z,5.45
2023-03-01T11:25:21.462Z,5.52
2023-03-01T11:27:49.430Z,5.55
2023-03-01T11:30:22.197Z,5.54
2023-03-01T11:32:57.281Z,5.57
2023-03-01T11:35:28.642Z,5.60
2023-03-01T11:38:18.737Z,5.68
2023-03-01T11:40:54.315Z,5.70
2023-03-01T11:43:29.443Z,5.71
2023-03-01T11:46:23.748Z,5.79
2023-03-01T11:48:59.881Z,5.80
2023-03-01T11:51:46.648Z,5.87
2023-03-01T11:54:30.180Z,5.88
2023-03-01T11:57:03.287Z,5.94
2023-03-01T11:59:50.114Z,6.00
2023-03-01T12:02:37.775Z,6.07
2023-03-01T12:05:26.618Z,6.13
2023-03-01T12:08:01.300Z,6.19
2023-03-01T12:10:30.641Z,6.24
2023-03-01T12:13:20.059Z,6.28
2023-03-01T12:16:11.960Z,6.34
2023-03-01T12:18:54.933Z,6.41
2023-03-01T12:21:33.097Z,6.42
2023-03-01T12:24:26.526Z,6.48
2023-03-01T12:27:05.862Z,6.45
2023-03-01T12:29:40.706Z,6.41
2023-03-01T12:32:23.972Z,6.41
2023-03-01T12:35:24.213Z,6.39
2023-03-01T12:37:58.677Z,6.41
2023-03-01T12:40:48.854Z,6.23
2023-03-01T12:43:30.352Z,6.28
2023-03-01T12:46:16.867Z,6.31
2023-03-01T12:48:52.898Z,6.31
2023-03-01T12:51:25.630Z,6.33
2023-03-01T12:53:57.075Z,6.32
2023-03-01T12:56:27.488Z,6.39
2023-03-01T12:59:04.608Z,6.44
2023-03-01T13:01:44.838Z,6.47
2023-03-01T13:04:39.419Z,6.50
2023-03-01T13:07:18.730Z,6.55
2023-03-01T13:09:56.396Z,6.60
2023-03-01T13:13:04.069Z,6.53
2023-03-01T13:15:36.594Z,6.62
2023-03-01T13:18:27.383Z,6.65
2023-03-01T13:20:58.351Z,6.65
2023-03-01T13:23:28.786Z,6.73
2023-03-01T13:26:15.087Z,6.79
2023-03-01T13:29:01.847Z,6.74
2023-03-01T13:32:04.965Z,6.66
2023-03-01T13:34:45.801Z,6.71
2023-03-01T13:37:22.972Z,6.80
2023-03-01T13:39:51.135Z,6.77
2023-03-01T13:43:04.195Z,6.73
2023-03-01T13:45:41.232Z,6.73
2023-03-01T13:48:17.220Z,6.77
2023-03-01T13:50:51.239Z,6.78
2023-03-01T13:53:21.821Z,6.76
2023-03-01T13:55:52.862Z,6.78
2023-03-01T13:58:26.325Z,6.79
2023-03-01T14:00:59.508Z,6.77
2023-03-01T14:03:28.076Z,6.63
2023-03-01T14:06:14.867Z,6.51
2023-03-01T14:08:45.083Z,6.51
2023-03-01T14:11:43.856Z,6.59
2023-03-01T14:14:42.433Z,6.46
2023-03-01T14:17:28.338Z,6.40
2023-03-01T14:19:58.258Z,6.42
2023-03-01T14:22:29.413Z,6.40
2023-03-01T14:25:00.273Z,6.35
2023-03-01T14:27:30.006Z,6.31
2023-03-01T14:30:03.459Z,6.42
2023-03-01T14:32:33.501Z,6.38
2023-03-01T14:35:02.634Z,6.32
2023-03-01T14:37:33.840Z,6.34
2023-03-01T14:40:03.561Z,6.37
2023-03-01T14:42:35.945Z,6.31
2023-03-01T14:45:05.820Z,6.26
2023-03-01T14:47:35.665Z,6.25
2023-03-01T14:50:06.826Z,6.25
2023-03-01T14:52:39.573Z,6.23
2023-03-01T14:55:17.260Z,6.18
2023-03-01T14:57:46.103Z,6.19
2023-03-01T15:00:20.812Z,6.24
2023-03-01T15:02:50.779Z,6.19
2023-03-01T15:05:29.888Z,6.21
2023-03-01T15:08:01.272Z,6.13
2023-03-01T15:10:31.046Z,6.24
2023-03-01T15:13:11.821Z,6.18
2023-03-01T15:15:42.713Z,6.21
2023-03-01T15:18:18.799Z,6.18
2023-03-01T15:20:47.220Z,6.18
2023-03-01T15:23:25.499Z,6.20
2023-03-01T15:25:58.214Z,6.16
2023-03-01T15:28:28.572Z,6.20
2023-03-01T15:31:03.000Z,6.21
2023-03-01T15:33:34.102Z,6.13
2023-03-01T15:36:03.717Z,6.18
2023-03-01T15:38:39.203Z,6.22
2023-03-01T15:41:23.794Z,6.24
2023-03-01T15:43:51.727Z,6.24
2023-03-01T15:46:24.553Z,6.17
2023-03-01T15:48:55.490Z,6.10
2023-03-01T15:51:31.110Z,6.09
2023-03-01T15:54:02.686Z,6.15
2023-03-01T15:56:30.875Z,6.14
2023-03-01T15:59:03.853Z,6.18
2023-03-01T16:01:35.111Z,6.15
2023-03-01T16:04:03.036Z,6.17
2023-03-01T16:06:31.277Z,6.11
2023-03-01T16:09:00.860Z,6.16
2023-03-01T16:11:29.009Z,6.07
2023-03-01T16:13:56.932Z,6.08
2023-03-01T16:16:25.406Z,6.11
2023-03-01T16:18:55.511Z,6.06
2023-03-01T16:21:25.816Z,6.03
2023-03-01T16:23:54.172Z,6.03
2023-03-01T16:26:23.379Z,6.01
2023-03-01T16:28:51.191Z,5.96
2023-03-01T16:31:21.320Z,5.98
2023-03-01T16:33:50.908Z,5.96
2023-03-01T16:36:20.664Z,5.95
2023-03-01T16:38:49.425Z,5.95
2023-03-01T16:41:20.868Z,5.94
2023-03-01T16:43:50.295Z,5.95
2023-03-01T16:46:19.904Z,5.96
2023-03-01T16:48:49.009Z,5.95
2023-03-01T16:51:17.218Z,5.92
2023-03-01T16:53:47.393Z,5.91
2023-03-01T16:56:16.438Z,5.86
2023-03-01T16:58:44.881Z,5.84
2023-03-01T17:01:18.259Z,5.85
2023-03-01T17:03:48.246Z,5.83
2023-03-01T17:06:19.447Z,5.81
2023-03-01T17:08:47.269Z,5.76
2023-03-01T17:11:17.041Z,5.68
2023-03-01T17:13:45.388Z,5.65
2023-03-01T17:16:18.011Z,5.66
2023-03-01T17:18:45.886Z,5.62
2023-03-01T17:21:14.444Z,5.65
2023-03-01T17:23:45.550Z,5.64
2023-03-01T17:26:14.171Z,5.62
2023-03-01T17:28:43.799Z,5.61
2023-03-01T17:31:12.000Z,5.61
2023-03-01T17:33:41.113Z,5.59
2023-03-01T17:36:09.101Z,5.58
2023-03-01T17:38:37.428Z,5.51
2023-03-01T17:41:06.194Z,5.52
2023-03-01T17:43:35.122Z,5.47
2023-03-01T17:46:03.369Z,5.46
2023-03-01T17:48:31.617Z,5.44
2023-03-01T17:51:00.990Z,5.45
2023-03-01T17:53:28.751Z,5.44
2023-03-01T17:56:01.742Z,5.43
2023-03-01T17:58:29.523Z,5.10
2023-03-01T18:00:57.305Z,5.30
2023-03-01T18:03:25.196Z,5.34
2023-03-01T18:05:53.037Z,5.31
2023-03-01T18:08:22.200Z,5.30
2023-03-01T18:10:50.225Z,5.27
2023-03-01T18:13:18.031Z,5.24
2023-03-01T18:15:45.761Z,5.24
2023-03-01T18:18:13.537Z,5.20
2023-03-01T18:20:41.317Z,5.21
2023-03-01T18:23:09.221Z,5.21
2023-03-01T18:25:41.508Z,5.19
2023-03-01T18:28:09.367Z,5.14
2023-03-01T18:30:37.306Z,5.14
2023-03-01T18:33:05.366Z,5.09
2023-03-01T18:35:37.014Z,5.06
2023-03-01T18:38:05.863Z,5.04
2023-03-01T18:40:33.703Z,5.04
2023-03-01T18:43:03.056Z,5.03
2023-03-01T18:45:32.558Z,4.95
2023-03-01T18:48:00.410Z,4.93
2023-03-01T18:50:28.246Z,4.92
2023-03-01T18:52:56.298Z,4.89
2023-03-01T18:55:24.082Z,4.86
2023-03-01T18:57:51.941Z,4.86
2023-03-01T19:00:22.875Z,4.88
2023-03-01T19:02:50.681Z,4.85
2023-03-01T19:05:18.793Z,4.87
2023-03-01T19:07:46.604Z,4.88
2023-03-01T19:10:14.346Z,4.89
2023-03-01T19:12:42.140Z,4.90
2023-03-01T19:15:10.471Z,4.89
2023-03-01T19:17:39.609Z,4.89
2023-03-01T19:20:09.017Z,4.85
2023-03-01T19:22:36.838Z,4.87
2023-03-01T19:25:04.984Z,4.85
2023-03-01T19:27:32.815Z,4.85
2023-03-01T19:30:00.572Z,4.83
2023-03-01T19:32:28.525Z,4.85
2023-03-01T19:34:57.745Z,4.84
2023-03-01T19:37:25.590Z,4.83
2023-03-01T19:39:53.391Z,4.84
2023-03-01T19:42:24.816Z,4.80
2023-03-01T19:44:52.590Z,4.79
2023-03-01T19:47:20.389Z,4.79
2023-03-01T19:49:48.250Z,4.77
2023-03-01T19:52:17.507Z,4.80
2023-03-01T19:54:46.463Z,4.78
2023-03-01T19:57:14.300Z,4.77
2023-03-01T19:59:42.248Z,4.77
2023-03-01T20:02:12.160Z,4.76
2023-03-01T20:04:39.984Z,4.74
2023-03-01T20:07:07.846Z,4.72
2023-03-01T20:09:37.223Z,4.70
2023-03-01T20:12:05.231Z,4.67
2023-03-01T20:14:33.110Z,4.67
2023-03-01T20:17:00.921Z,4.64
2023-03-01T20:19:29.655Z,4.61
2023-03-01T20:21:57.527Z,4.60
2023-03-01T20:24:25.381Z,4.59
2023-03-01T20:26:54.508Z,4.59
2023-03-01T20:29:22.541Z,4.57
2023-03-01T20:31:50.545Z,4.58
2023-03-01T20:34:18.564Z,4.57
2023-03-01T20:36:46.356Z,4.57
2023-03-01T20:39:14.227Z,4.57
2023-03-01T20:41:42.158Z,4.54
2023-03-01T20:44:11.602Z,4.59
2023-03-01T20:46:39.863Z,4.58
2023-03-01T20:49:08.208Z,4.58
2023-03-01T20:51:36.027Z,4.58
2023-03-01T20:54:04.173Z,4.60
2023-03-01T20:56:32.475Z,4.60
2023-03-01T20:59:04.515Z,4.61
2023-03-01T21:01:33.765Z,4.61
2023-03-01T21:04:01.627Z,4.58
2023-03-01T21:06:29.628Z,4.60
2023-03-01T21:09:10.876Z,4.61
2023-03-01T21:11:39.254Z,4.58
2023-03-01T21:14:07.039Z,4.55
2023-03-01T21:16:36.640Z,4.53
2023-03-01T21:19:05.459Z,4.49
2023-03-01T21:21:33.276Z,4.50
2023-03-01T21:24:01.055Z,4.48
2023-03-01T21:26:28.865Z,4.45
2023-03-01T21:28:58.509Z,4.46
2023-03-01T21:31:28.451Z,4.43
2023-03-01T21:33:59.926Z,4.43
2023-03-01T21:36:30.401Z,4.43
2023-03-01T21:39:01.232Z,4.43
2023-03-01T21:41:31.399Z,4.42
2023-03-01T21:44:01.130Z,4.41
2023-03-01T21:46:31.870Z,4.39
2023-03-01T21:49:02.499Z,4.35
2023-03-01T21:51:30.547Z,4.32
2023-03-01T21:54:00.983Z,4.29
2023-03-01T21:56:31.755Z,4.29
2023-03-01T21:58:59.946Z,4.26
2023-03-01T22:01:29.461Z,4.24
2023-03-01T22:03:58.538Z,4.22
2023-03-01T22:06:30.891Z,4.20
2023-03-01T22:09:01.033Z,4.16
2023-03-01T22:11:29.088Z,4.17
2023-03-01T22:13:57.397Z,4.15
2023-03-01T22:16:27.231Z,4.15
2023-03-01T22:18:55.286Z,4.13
2023-03-01T22:21:24.666Z,4.09
2023-03-01T22:23:54.480Z,4.09
2023-03-01T22:26:25.422Z,4.09
2023-03-01T22:28:53.912Z,4.07
2023-03-01T22:31:22.187Z,4.02
2023-03-01T22:33:50.061Z,4.02
2023-03-01T22:36:18.058Z,4.03
2023-03-01T22:38:46.274Z,4.02
2023-03-01T22:41:17.197Z,4.01
2023-03-01T22:43:44.958Z,3.97
2023-03-01T22:46:14.177Z,3.97
2023-03-01T22:48:42.205Z,3.95
2023-03-01T22:51:15.032Z,3.93
2023-03-01T22:53:42.864Z,3.87
2023-03-01T22:56:18.049Z,3.87
2023-03-01T22:58:46.361Z,3.86
2023-03-01T23:01:16.208Z,3.86
2023-03-01T23:03:45.365Z,3.82
2023-03-01T23:06:14.161Z,3.80
2023-03-01T23:08:42.182Z,3.78
2023-03-01T23:11:16.975Z,3.80
2023-03-01T23:13:45.052Z,3.74
2023-03-01T23:16:13.591Z,3.72
2023-03-01T23:18:41.870Z,3.66
2023-03-01T23:21:11.011Z,3.65
2023-03-01T23:23:39.122Z,3.63
2023-03-01T23:26:07.889Z,3.61
2023-03-01T23:28:40.682Z,3.59
2023-03-01T23:31:09.742Z,3.34
2023-03-01T23:33:38.760Z,3.51
2023-03-01T23:36:07.907Z,3.52
2023-03-01T23:38:35.696Z,3.49
2023-03-01T23:41:03.476Z,3.48
2023-03-01T23:43:33.061Z,3.44
2023-03-01T23:46:02.297Z,3.44
2023-03-01T23:48:30.072Z,3.40
2023-03-01T23:50:57.916Z,3.39
2023-03-01T23:53:25.955Z,3.36
2023-03-01T23:55:55.106Z,3.37
2023-03-01T23:58:28.269Z,3.37
